sensor_id;sensor_type;location;lat;lon;timestamp;P1;durP1;ratioP1;P2;durP2;ratioP2
26598;SDS011;14240;51.064;16.612;2023-01-16T00:00:53;7.72;;;2.60;;
26598;SDS011;14240;51.064;16.612;2023-01-16T00:03:19;6.10;;;2.65;;
26598;SDS011;14240;51.064;16.612;2023-01-16T00:05:45;7.32;;;2.33;;
26598;SDS011;14240;51.064;16.612;2023-01-16T00:08:11;6.82;;;3.55;;
26598;SDS011;14240;51.064;16.612;2023-01-16T00:10:37;4.15;;;2.25;;
26598;SDS011;14240;51.064;16.612;2023-01-16T00:13:03;6.20;;;2.80;;
26598;SDS011;14240;51.064;16.612;2023-01-16T00:15:29;7.15;;;3.17;;
26598;SDS011;14240;51.064;16.612;2023-01-16T00:17:55;5.30;;;2.53;;
26598;SDS011;14240;51.064;16.612;2023-01-16T00:20:20;5.43;;;2.42;;
26598;SDS011;14240;51.064;16.612;2023-01-16T00:22:46;6.30;;;2.95;;
26598;SDS011;14240;51.064;16.612;2023-01-16T00:25:12;4.72;;;2.90;;
26598;SDS011;14240;51.064;16.612;2023-01-16T00:27:38;6.97;;;2.80;;
26598;SDS011;14240;51.064;16.612;2023-01-16T00:30:04;4.85;;;2.50;;
26598;SDS011;14240;51.064;16.612;2023-01-16T00:32:30;5.47;;;2.60;;
26598;SDS011;14240;51.064;16.612;2023-01-16T00:34:56;4.93;;;2.42;;
26598;SDS011;14240;51.064;16.612;2023-01-16T00:37:21;5.45;;;2.65;;
26598;SDS011;14240;51.064;16.612;2023-01-16T00:39:47;36.00;;;11.25;;
26598;SDS011;14240;51.064;16.612;2023-01-16T00:42:13;89.40;;;23.80;;
26598;SDS011;14240;51.064;16.612;2023-01-16T00:44:40;35.50;;;8.50;;
26598;SDS011;14240;51.064;16.612;2023-01-16T00:47:05;19.70;;;3.97;;
26598;SDS011;14240;51.064;16.612;2023-01-16T00:49:31;7.88;;;3.60;;
26598;SDS011;14240;51.064;16.612;2023-01-16T00:51:57;11.95;;;4.30;;
26598;SDS011;14240;51.064;16.612;2023-01-16T00:54:23;11.35;;;3.35;;
26598;SDS011;14240;51.064;16.612;2023-01-16T00:56:49;8.80;;;2.95;;
26598;SDS011;14240;51.064;16.612;2023-01-16T00:59:14;8.90;;;3.45;;
26598;SDS011;14240;51.064;16.612;2023-01-16T01:01:40;8.48;;;3.30;;
26598;SDS011;14240;51.064;16.612;2023-01-16T01:04:05;5.82;;;2.38;;
26598;SDS011;14240;51.064;16.612;2023-01-16T01:06:32;7.00;;;2.97;;
26598;SDS011;14240;51.064;16.612;2023-01-16T01:08:57;4.03;;;2.53;;
26598;SDS011;14240;51.064;16.612;2023-01-16T01:11:23;5.68;;;2.45;;
26598;SDS011;14240;51.064;16.612;2023-01-16T01:13:49;4.63;;;2.30;;
26598;SDS011;14240;51.064;16.612;2023-01-16T01:16:14;7.88;;;2.35;;
26598;SDS011;14240;51.064;16.612;2023-01-16T01:18:40;4.50;;;2.38;;
26598;SDS011;14240;51.064;16.612;2023-01-16T01:21:06;4.13;;;2.55;;
26598;SDS011;14240;51.064;16.612;2023-01-16T01:23:32;6.63;;;3.05;;
26598;SDS011;14240;51.064;16.612;2023-01-16T01:25:58;4.60;;;2.90;;
26598;SDS011;14240;51.064;16.612;2023-01-16T01:28:29;3.83;;;2.55;;
26598;SDS011;14240;51.064;16.612;2023-01-16T01:30:55;5.78;;;2.00;;
26598;SDS011;14240;51.064;16.612;2023-01-16T01:33:21;3.13;;;2.28;;
26598;SDS011;14240;51.064;16.612;2023-01-16T01:35:46;2.03;;;1.80;;
26598;SDS011;14240;51.064;16.612;2023-01-16T01:38:15;8.25;;;2.22;;
26598;SDS011;14240;51.064;16.612;2023-01-16T01:40:41;6.38;;;1.80;;
26598;SDS011;14240;51.064;16.612;2023-01-16T01:43:13;3.20;;;1.67;;
26598;SDS011;14240;51.064;16.612;2023-01-16T01:45:39;3.70;;;2.00;;
26598;SDS011;14240;51.064;16.612;2023-01-16T01:53:12;3.13;;;2.05;;
26598;SDS011;14240;51.064;16.612;2023-01-16T01:55:50;5.03;;;2.03;;
26598;SDS011;14240;51.064;16.612;2023-01-16T01:58:17;6.22;;;1.90;;
26598;SDS011;14240;51.064;16.612;2023-01-16T02:00:47;18.27;;;5.93;;
26598;SDS011;14240;51.064;16.612;2023-01-16T02:03:22;14.05;;;4.05;;
26598;SDS011;14240;51.064;16.612;2023-01-16T02:05:52;8.13;;;2.60;;
26598;SDS011;14240;51.064;16.612;2023-01-16T02:08:24;10.32;;;3.05;;
26598;SDS011;14240;51.064;16.612;2023-01-16T02:10:53;7.85;;;2.83;;
26598;SDS011;14240;51.064;16.612;2023-01-16T02:13:25;8.05;;;3.35;;
26598;SDS011;14240;51.064;16.612;2023-01-16T02:15:51;7.22;;;2.45;;
26598;SDS011;14240;51.064;16.612;2023-01-16T02:18:35;6.85;;;2.40;;
26598;SDS011;14240;51.064;16.612;2023-01-16T02:24:42;3.25;;;2.28;;
26598;SDS011;14240;51.064;16.612;2023-01-16T02:38:17;2.72;;;2.13;;
26598;SDS011;14240;51.064;16.612;2023-01-16T02:43:55;8.13;;;2.53;;
26598;SDS011;14240;51.064;16.612;2023-01-16T02:51:59;6.13;;;2.30;;
26598;SDS011;14240;51.064;16.612;2023-01-16T02:54:35;7.35;;;2.80;;
26598;SDS011;14240;51.064;16.612;2023-01-16T02:57:11;5.10;;;2.50;;
26598;SDS011;14240;51.064;16.612;2023-01-16T02:59:41;5.68;;;2.92;;
26598;SDS011;14240;51.064;16.612;2023-01-16T03:02:10;4.85;;;2.45;;
26598;SDS011;14240;51.064;16.612;2023-01-16T03:15:10;3.83;;;2.60;;
26598;SDS011;14240;51.064;16.612;2023-01-16T03:22:57;19.90;;;7.93;;
26598;SDS011;14240;51.064;16.612;2023-01-16T03:28:16;8.45;;;3.38;;
26598;SDS011;14240;51.064;16.612;2023-01-16T03:30:54;7.45;;;3.08;;
26598;SDS011;14240;51.064;16.612;2023-01-16T03:33:33;11.60;;;4.13;;
26598;SDS011;14240;51.064;16.612;2023-01-16T03:36:23;6.97;;;2.67;;
26598;SDS011;14240;51.064;16.612;2023-01-16T03:39:01;8.98;;;3.10;;
26598;SDS011;14240;51.064;16.612;2023-01-16T03:41:31;8.07;;;3.20;;
26598;SDS011;14240;51.064;16.612;2023-01-16T03:44:01;6.10;;;3.78;;
26598;SDS011;14240;51.064;16.612;2023-01-16T03:46:33;7.80;;;3.45;;
26598;SDS011;14240;51.064;16.612;2023-01-16T03:49:07;5.78;;;3.63;;
26598;SDS011;14240;51.064;16.612;2023-01-16T03:51:37;12.23;;;3.55;;
26598;SDS011;14240;51.064;16.612;2023-01-16T03:54:13;8.55;;;3.72;;
26598;SDS011;14240;51.064;16.612;2023-01-16T03:57:10;10.68;;;3.22;;
26598;SDS011;14240;51.064;16.612;2023-01-16T03:59:47;9.00;;;3.17;;
26598;SDS011;14240;51.064;16.612;2023-01-16T04:07:40;6.40;;;3.10;;
26598;SDS011;14240;51.064;16.612;2023-01-16T04:10:21;7.43;;;3.05;;
26598;SDS011;14240;51.064;16.612;2023-01-16T04:12:51;7.18;;;2.80;;
26598;SDS011;14240;51.064;16.612;2023-01-16T04:15:22;3.90;;;2.88;;
26598;SDS011;14240;51.064;16.612;2023-01-16T04:17:49;4.93;;;2.97;;
26598;SDS011;14240;51.064;16.612;2023-01-16T04:20:16;5.22;;;2.58;;
26598;SDS011;14240;51.064;16.612;2023-01-16T04:22:42;5.78;;;3.17;;
26598;SDS011;14240;51.064;16.612;2023-01-16T04:25:12;5.70;;;2.92;;
26598;SDS011;14240;51.064;16.612;2023-01-16T04:27:38;6.60;;;2.83;;
26598;SDS011;14240;51.064;16.612;2023-01-16T04:30:04;6.25;;;2.45;;
26598;SDS011;14240;51.064;16.612;2023-01-16T04:32:30;6.25;;;3.17;;
26598;SDS011;14240;51.064;16.612;2023-01-16T04:34:56;7.05;;;4.00;;
26598;SDS011;14240;51.064;16.612;2023-01-16T04:37:21;6.53;;;3.28;;
26598;SDS011;14240;51.064;16.612;2023-01-16T04:39:47;5.25;;;3.13;;
26598;SDS011;14240;51.064;16.612;2023-01-16T04:42:14;8.10;;;3.70;;
26598;SDS011;14240;51.064;16.612;2023-01-16T04:44:43;11.75;;;3.88;;
26598;SDS011;14240;51.064;16.612;2023-01-16T04:47:09;7.43;;;3.28;;
26598;SDS011;14240;51.064;16.612;2023-01-16T04:49:35;6.45;;;3.38;;
26598;SDS011;14240;51.064;16.612;2023-01-16T04:52:00;7.15;;;3.25;;
26598;SDS011;14240;51.064;16.612;2023-01-16T04:54:26;5.95;;;2.65;;
26598;SDS011;14240;51.064;16.612;2023-01-16T04:56:52;10.40;;;3.50;;
26598;SDS011;14240;51.064;16.612;2023-01-16T04:59:17;5.00;;;2.63;;
26598;SDS011;14240;51.064;16.612;2023-01-16T05:01:43;5.43;;;2.40;;
26598;SDS011;14240;51.064;16.612;2023-01-16T05:04:09;3.42;;;1.98;;
26598;SDS011;14240;51.064;16.612;2023-01-16T05:06:36;4.20;;;2.67;;
26598;SDS011;14240;51.064;16.612;2023-01-16T05:09:02;4.72;;;2.15;;
26598;SDS011;14240;51.064;16.612;2023-01-16T05:11:30;5.10;;;2.30;;
26598;SDS011;14240;51.064;16.612;2023-01-16T05:13:56;7.55;;;2.72;;
26598;SDS011;14240;51.064;16.612;2023-01-16T05:16:22;4.68;;;2.22;;
26598;SDS011;14240;51.064;16.612;2023-01-16T05:18:47;5.45;;;2.63;;
26598;SDS011;14240;51.064;16.612;2023-01-16T05:21:13;4.25;;;1.98;;
26598;SDS011;14240;51.064;16.612;2023-01-16T05:23:38;6.43;;;2.65;;
26598;SDS011;14240;51.064;16.612;2023-01-16T05:26:04;7.80;;;3.90;;
26598;SDS011;14240;51.064;16.612;2023-01-16T05:28:31;6.82;;;2.97;;
26598;SDS011;14240;51.064;16.612;2023-01-16T05:30:57;6.75;;;3.40;;
26598;SDS011;14240;51.064;16.612;2023-01-16T05:33:23;6.63;;;3.17;;
26598;SDS011;14240;51.064;16.612;2023-01-16T05:35:48;10.60;;;3.20;;
26598;SDS011;14240;51.064;16.612;2023-01-16T05:38:15;6.67;;;3.53;;
26598;SDS011;14240;51.064;16.612;2023-01-16T05:40:43;4.38;;;2.60;;
26598;SDS011;14240;51.064;16.612;2023-01-16T05:43:12;12.13;;;5.38;;
26598;SDS011;14240;51.064;16.612;2023-01-16T05:45:38;6.85;;;3.35;;
26598;SDS011;14240;51.064;16.612;2023-01-16T05:48:04;4.72;;;2.58;;
26598;SDS011;14240;51.064;16.612;2023-01-16T05:50:30;2.60;;;1.83;;
26598;SDS011;14240;51.064;16.612;2023-01-16T05:52:55;4.80;;;2.60;;
26598;SDS011;14240;51.064;16.612;2023-01-16T05:55:21;5.18;;;3.05;;
26598;SDS011;14240;51.064;16.612;2023-01-16T05:57:47;6.00;;;2.80;;
26598;SDS011;14240;51.064;16.612;2023-01-16T06:00:13;7.32;;;3.45;;
26598;SDS011;14240;51.064;16.612;2023-01-16T06:02:39;13.10;;;3.40;;
26598;SDS011;14240;51.064;16.612;2023-01-16T06:05:05;9.18;;;3.72;;
26598;SDS011;14240;51.064;16.612;2023-01-16T06:07:31;9.30;;;3.78;;
26598;SDS011;14240;51.064;16.612;2023-01-16T06:09:56;6.30;;;3.22;;
26598;SDS011;14240;51.064;16.612;2023-01-16T06:12:22;4.68;;;2.20;;
26598;SDS011;14240;51.064;16.612;2023-01-16T06:14:48;4.90;;;2.38;;
26598;SDS011;14240;51.064;16.612;2023-01-16T06:17:13;5.22;;;2.17;;
26598;SDS011;14240;51.064;16.612;2023-01-16T06:19:42;4.60;;;2.30;;
26598;SDS011;14240;51.064;16.612;2023-01-16T06:22:09;6.28;;;2.80;;
26598;SDS011;14240;51.064;16.612;2023-01-16T06:24:35;6.45;;;2.97;;
26598;SDS011;14240;51.064;16.612;2023-01-16T06:27:00;5.00;;;2.80;;
26598;SDS011;14240;51.064;16.612;2023-01-16T06:29:26;6.35;;;2.78;;
26598;SDS011;14240;51.064;16.612;2023-01-16T06:31:52;9.18;;;2.90;;
26598;SDS011;14240;51.064;16.612;2023-01-16T06:34:17;7.18;;;2.58;;
26598;SDS011;14240;51.064;16.612;2023-01-16T06:36:43;5.78;;;2.83;;
26598;SDS011;14240;51.064;16.612;2023-01-16T06:39:11;6.10;;;2.70;;
26598;SDS011;14240;51.064;16.612;2023-01-16T06:41:37;5.70;;;2.78;;
26598;SDS011;14240;51.064;16.612;2023-01-16T06:44:03;11.73;;;4.45;;
26598;SDS011;14240;51.064;16.612;2023-01-16T06:46:28;11.48;;;4.13;;
26598;SDS011;14240;51.064;16.612;2023-01-16T06:48:54;9.57;;;3.17;;
26598;SDS011;14240;51.064;16.612;2023-01-16T06:51:20;8.10;;;3.53;;
26598;SDS011;14240;51.064;16.612;2023-01-16T06:53:45;6.00;;;2.92;;
26598;SDS011;14240;51.064;16.612;2023-01-16T06:56:11;8.95;;;4.43;;
26598;SDS011;14240;51.064;16.612;2023-01-16T06:58:37;14.30;;;5.97;;
26598;SDS011;14240;51.064;16.612;2023-01-16T07:01:02;24.92;;;7.88;;
26598;SDS011;14240;51.064;16.612;2023-01-16T07:03:28;29.95;;;10.73;;
26598;SDS011;14240;51.064;16.612;2023-01-16T07:05:54;14.88;;;4.80;;
26598;SDS011;14240;51.064;16.612;2023-01-16T07:08:19;10.02;;;3.50;;
26598;SDS011;14240;51.064;16.612;2023-01-16T07:10:45;9.50;;;2.80;;
26598;SDS011;14240;51.064;16.612;2023-01-16T07:13:10;11.00;;;3.17;;
26598;SDS011;14240;51.064;16.612;2023-01-16T07:15:36;8.38;;;3.17;;
26598;SDS011;14240;51.064;16.612;2023-01-16T07:18:21;21.17;;;10.38;;
26598;SDS011;14240;51.064;16.612;2023-01-16T07:21:05;7.45;;;2.50;;
26598;SDS011;14240;51.064;16.612;2023-01-16T07:23:56;4.25;;;2.25;;
26598;SDS011;14240;51.064;16.612;2023-01-16T07:26:24;7.57;;;3.50;;
26598;SDS011;14240;51.064;16.612;2023-01-16T07:28:51;4.10;;;1.60;;
26598;SDS011;14240;51.064;16.612;2023-01-16T07:33:45;3.92;;;2.00;;
26598;SDS011;14240;51.064;16.612;2023-01-16T07:36:10;3.70;;;2.35;;
26598;SDS011;14240;51.064;16.612;2023-01-16T07:38:36;2.92;;;1.73;;
26598;SDS011;14240;51.064;16.612;2023-01-16T07:41:02;5.22;;;2.45;;
26598;SDS011;14240;51.064;16.612;2023-01-16T07:43:27;9.02;;;3.28;;
26598;SDS011;14240;51.064;16.612;2023-01-16T07:45:53;5.10;;;2.70;;
26598;SDS011;14240;51.064;16.612;2023-01-16T07:48:19;7.55;;;2.92;;
26598;SDS011;14240;51.064;16.612;2023-01-16T07:50:53;3.37;;;2.47;;
26598;SDS011;14240;51.064;16.612;2023-01-16T07:53:20;12.63;;;2.67;;
26598;SDS011;14240;51.064;16.612;2023-01-16T07:55:48;6.82;;;2.60;;
26598;SDS011;14240;51.064;16.612;2023-01-16T07:58:15;8.75;;;3.30;;
26598;SDS011;14240;51.064;16.612;2023-01-16T08:00:41;20.00;;;6.28;;
26598;SDS011;14240;51.064;16.612;2023-01-16T08:03:07;21.67;;;6.85;;
26598;SDS011;14240;51.064;16.612;2023-01-16T08:05:33;16.27;;;5.78;;
26598;SDS011;14240;51.064;16.612;2023-01-16T08:07:59;16.30;;;5.03;;
26598;SDS011;14240;51.064;16.612;2023-01-16T08:10:24;11.48;;;4.50;;
26598;SDS011;14240;51.064;16.612;2023-01-16T08:12:50;12.35;;;4.35;;
26598;SDS011;14240;51.064;16.612;2023-01-16T08:15:15;13.15;;;5.22;;
26598;SDS011;14240;51.064;16.612;2023-01-16T08:17:41;11.73;;;4.97;;
26598;SDS011;14240;51.064;16.612;2023-01-16T08:20:07;9.32;;;4.32;;
26598;SDS011;14240;51.064;16.612;2023-01-16T08:22:34;7.65;;;4.00;;
26598;SDS011;14240;51.064;16.612;2023-01-16T08:24:59;14.10;;;4.10;;
26598;SDS011;14240;51.064;16.612;2023-01-16T08:27:25;11.98;;;5.40;;
26598;SDS011;14240;51.064;16.612;2023-01-16T08:29:50;18.92;;;5.75;;
26598;SDS011;14240;51.064;16.612;2023-01-16T08:32:16;8.10;;;4.00;;
26598;SDS011;14240;51.064;16.612;2023-01-16T08:34:42;11.27;;;4.97;;
26598;SDS011;14240;51.064;16.612;2023-01-16T08:37:07;11.52;;;4.07;;
26598;SDS011;14240;51.064;16.612;2023-01-16T08:39:35;12.43;;;4.15;;
26598;SDS011;14240;51.064;16.612;2023-01-16T08:42:02;12.50;;;4.10;;
26598;SDS011;14240;51.064;16.612;2023-01-16T08:44:48;9.07;;;3.85;;
26598;SDS011;14240;51.064;16.612;2023-01-16T08:47:32;5.95;;;2.92;;
26598;SDS011;14240;51.064;16.612;2023-01-16T08:50:17;4.13;;;2.05;;
26598;SDS011;14240;51.064;16.612;2023-01-16T08:53:02;4.60;;;2.30;;
26598;SDS011;14240;51.064;16.612;2023-01-16T08:55:29;4.63;;;2.00;;
26598;SDS011;14240;51.064;16.612;2023-01-16T08:57:54;5.15;;;1.92;;
26598;SDS011;14240;51.064;16.612;2023-01-16T09:00:24;5.97;;;2.75;;
26598;SDS011;14240;51.064;16.612;2023-01-16T09:02:53;6.90;;;2.20;;
26598;SDS011;14240;51.064;16.612;2023-01-16T09:07:46;7.13;;;2.95;;
26598;SDS011;14240;51.064;16.612;2023-01-16T09:10:12;6.18;;;3.60;;
26598;SDS011;14240;51.064;16.612;2023-01-16T09:12:38;8.85;;;3.30;;
26598;SDS011;14240;51.064;16.612;2023-01-16T09:15:22;8.70;;;2.78;;
26598;SDS011;14240;51.064;16.612;2023-01-16T09:17:48;6.45;;;3.15;;
26598;SDS011;14240;51.064;16.612;2023-01-16T09:20:14;7.13;;;3.28;;
26598;SDS011;14240;51.064;16.612;2023-01-16T09:22:40;4.13;;;2.70;;
26598;SDS011;14240;51.064;16.612;2023-01-16T09:25:06;28.60;;;12.35;;
26598;SDS011;14240;51.064;16.612;2023-01-16T09:27:31;62.17;;;27.05;;
26598;SDS011;14240;51.064;16.612;2023-01-16T09:29:57;43.67;;;17.08;;
26598;SDS011;14240;51.064;16.612;2023-01-16T09:32:24;37.15;;;14.23;;
26598;SDS011;14240;51.064;16.612;2023-01-16T09:34:49;41.90;;;14.88;;
26598;SDS011;14240;51.064;16.612;2023-01-16T09:37:15;8.77;;;4.82;;
26598;SDS011;14240;51.064;16.612;2023-01-16T09:39:41;15.98;;;6.40;;
26598;SDS011;14240;51.064;16.612;2023-01-16T09:45:17;12.98;;;3.90;;
26598;SDS011;14240;51.064;16.612;2023-01-16T09:47:46;9.45;;;4.93;;
26598;SDS011;14240;51.064;16.612;2023-01-16T09:50:26;11.32;;;4.13;;
26598;SDS011;14240;51.064;16.612;2023-01-16T09:52:57;4.07;;;2.28;;
26598;SDS011;14240;51.064;16.612;2023-01-16T09:55:47;7.90;;;3.13;;
26598;SDS011;14240;51.064;16.612;2023-01-16T09:58:34;3.65;;;2.13;;
26598;SDS011;14240;51.064;16.612;2023-01-16T10:01:15;4.45;;;2.50;;
26598;SDS011;14240;51.064;16.612;2023-01-16T10:03:47;4.53;;;2.15;;
26598;SDS011;14240;51.064;16.612;2023-01-16T10:06:16;4.30;;;1.73;;
26598;SDS011;14240;51.064;16.612;2023-01-16T10:09:12;3.15;;;1.90;;
26598;SDS011;14240;51.064;16.612;2023-01-16T10:12:18;3.25;;;1.65;;
26598;SDS011;14240;51.064;16.612;2023-01-16T10:14:54;2.65;;;1.55;;
26598;SDS011;14240;51.064;16.612;2023-01-16T10:17:35;3.10;;;1.88;;
26598;SDS011;14240;51.064;16.612;2023-01-16T10:25:41;3.22;;;2.13;;
26598;SDS011;14240;51.064;16.612;2023-01-16T10:31:09;5.47;;;1.98;;
26598;SDS011;14240;51.064;16.612;2023-01-16T10:33:46;3.30;;;1.98;;
26598;SDS011;14240;51.064;16.612;2023-01-16T10:36:21;6.25;;;2.80;;
26598;SDS011;14240;51.064;16.612;2023-01-16T10:38:51;6.47;;;2.25;;
26598;SDS011;14240;51.064;16.612;2023-01-16T10:41:22;3.22;;;2.15;;
26598;SDS011;14240;51.064;16.612;2023-01-16T10:44:37;4.50;;;2.30;;
26598;SDS011;14240;51.064;16.612;2023-01-16T10:47:22;3.38;;;1.50;;
26598;SDS011;14240;51.064;16.612;2023-01-16T10:50:11;4.45;;;2.00;;
26598;SDS011;14240;51.064;16.612;2023-01-16T10:52:37;3.25;;;2.22;;
26598;SDS011;14240;51.064;16.612;2023-01-16T10:55:04;5.43;;;2.22;;
26598;SDS011;14240;51.064;16.612;2023-01-16T10:57:31;6.53;;;2.60;;
26598;SDS011;14240;51.064;16.612;2023-01-16T11:00:08;7.15;;;2.30;;
26598;SDS011;14240;51.064;16.612;2023-01-16T11:02:43;4.78;;;1.95;;
26598;SDS011;14240;51.064;16.612;2023-01-16T11:05:21;6.15;;;2.13;;
26598;SDS011;14240;51.064;16.612;2023-01-16T11:07:55;5.20;;;2.65;;
26598;SDS011;14240;51.064;16.612;2023-01-16T11:10:27;6.22;;;2.42;;
26598;SDS011;14240;51.064;16.612;2023-01-16T11:12:54;4.10;;;2.50;;
26598;SDS011;14240;51.064;16.612;2023-01-16T11:15:39;4.80;;;2.40;;
26598;SDS011;14240;51.064;16.612;2023-01-16T11:18:27;5.82;;;2.85;;
26598;SDS011;14240;51.064;16.612;2023-01-16T11:20:56;6.13;;;2.63;;
26598;SDS011;14240;51.064;16.612;2023-01-16T11:23:38;5.22;;;2.33;;
26598;SDS011;14240;51.064;16.612;2023-01-16T11:26:06;3.22;;;2.03;;
26598;SDS011;14240;51.064;16.612;2023-01-16T11:28:33;6.85;;;2.70;;
26598;SDS011;14240;51.064;16.612;2023-01-16T11:31:00;4.43;;;2.30;;
26598;SDS011;14240;51.064;16.612;2023-01-16T11:33:48;7.72;;;2.47;;
26598;SDS011;14240;51.064;16.612;2023-01-16T11:36:23;7.40;;;2.30;;
26598;SDS011;14240;51.064;16.612;2023-01-16T11:38:50;6.68;;;2.65;;
26598;SDS011;14240;51.064;16.612;2023-01-16T11:41:18;5.13;;;2.22;;
26598;SDS011;14240;51.064;16.612;2023-01-16T11:47:17;10.05;;;2.67;;
26598;SDS011;14240;51.064;16.612;2023-01-16T11:49:48;5.70;;;2.20;;
26598;SDS011;14240;51.064;16.612;2023-01-16T11:52:20;6.50;;;2.17;;
26598;SDS011;14240;51.064;16.612;2023-01-16T11:54:56;5.03;;;2.20;;
26598;SDS011;14240;51.064;16.612;2023-01-16T11:57:28;5.40;;;2.47;;
26598;SDS011;14240;51.064;16.612;2023-01-16T12:03:09;6.65;;;2.92;;
26598;SDS011;14240;51.064;16.612;2023-01-16T12:05:54;4.18;;;2.40;;
26598;SDS011;14240;51.064;16.612;2023-01-16T12:14:27;6.18;;;2.20;;
26598;SDS011;14240;51.064;16.612;2023-01-16T12:36:46;5.22;;;2.03;;
26598;SDS011;14240;51.064;16.612;2023-01-16T12:45:10;6.32;;;1.80;;
26598;SDS011;14240;51.064;16.612;2023-01-16T12:50:53;5.72;;;2.10;;
26598;SDS011;14240;51.064;16.612;2023-01-16T12:53:46;3.38;;;1.85;;
26598;SDS011;14240;51.064;16.612;2023-01-16T12:56:22;4.15;;;2.40;;
26598;SDS011;14240;51.064;16.612;2023-01-16T12:59:12;5.60;;;2.10;;
26598;SDS011;14240;51.064;16.612;2023-01-16T13:02:06;4.28;;;2.28;;
26598;SDS011;14240;51.064;16.612;2023-01-16T13:04:36;5.35;;;2.22;;
26598;SDS011;14240;51.064;16.612;2023-01-16T13:07:07;5.80;;;2.17;;
26598;SDS011;14240;51.064;16.612;2023-01-16T13:12:14;4.72;;;2.22;;
26598;SDS011;14240;51.064;16.612;2023-01-16T13:15:06;4.22;;;2.03;;
26598;SDS011;14240;51.064;16.612;2023-01-16T13:18:00;2.58;;;1.65;;
26598;SDS011;14240;51.064;16.612;2023-01-16T13:20:30;3.35;;;2.40;;
26598;SDS011;14240;51.064;16.612;2023-01-16T13:22:57;5.03;;;2.08;;
26598;SDS011;14240;51.064;16.612;2023-01-16T13:25:28;5.55;;;2.53;;
26598;SDS011;14240;51.064;16.612;2023-01-16T13:28:59;4.80;;;2.20;;
26598;SDS011;14240;51.064;16.612;2023-01-16T13:33:25;4.10;;;2.17;;
26598;SDS011;14240;51.064;16.612;2023-01-16T13:35:59;4.47;;;2.65;;
26598;SDS011;14240;51.064;16.612;2023-01-16T13:46:28;4.72;;;2.10;;
26598;SDS011;14240;51.064;16.612;2023-01-16T13:48:56;5.07;;;2.22;;
26598;SDS011;14240;51.064;16.612;2023-01-16T13:51:24;6.32;;;2.50;;
26598;SDS011;14240;51.064;16.612;2023-01-16T13:53:51;5.28;;;2.00;;
26598;SDS011;14240;51.064;16.612;2023-01-16T13:56:23;3.55;;;2.17;;
26598;SDS011;14240;51.064;16.612;2023-01-16T13:58:54;5.97;;;1.88;;
26598;SDS011;14240;51.064;16.612;2023-01-16T14:04:25;6.18;;;2.10;;
26598;SDS011;14240;51.064;16.612;2023-01-16T14:12:42;3.72;;;2.30;;
26598;SDS011;14240;51.064;16.612;2023-01-16T14:15:25;6.20;;;2.45;;
26598;SDS011;14240;51.064;16.612;2023-01-16T14:18:18;4.25;;;2.05;;
26598;SDS011;14240;51.064;16.612;2023-01-16T14:23:23;8.05;;;3.25;;
26598;SDS011;14240;51.064;16.612;2023-01-16T14:26:16;4.63;;;2.38;;
26598;SDS011;14240;51.064;16.612;2023-01-16T14:29:13;5.95;;;3.50;;
26598;SDS011;14240;51.064;16.612;2023-01-16T14:34:22;13.15;;;4.72;;
26598;SDS011;14240;51.064;16.612;2023-01-16T14:36:54;8.63;;;3.50;;
26598;SDS011;14240;51.064;16.612;2023-01-16T14:39:37;7.65;;;3.33;;
26598;SDS011;14240;51.064;16.612;2023-01-16T14:42:19;8.90;;;4.32;;
26598;SDS011;14240;51.064;16.612;2023-01-16T14:45:13;10.25;;;3.80;;
26598;SDS011;14240;51.064;16.612;2023-01-16T14:48:12;8.23;;;3.70;;
26598;SDS011;14240;51.064;16.612;2023-01-16T14:51:18;7.28;;;3.53;;
26598;SDS011;14240;51.064;16.612;2023-01-16T14:54:16;8.63;;;2.95;;
26598;SDS011;14240;51.064;16.612;2023-01-16T14:57:16;4.53;;;3.03;;
26598;SDS011;14240;51.064;16.612;2023-01-16T15:02:27;12.02;;;4.07;;
26598;SDS011;14240;51.064;16.612;2023-01-16T15:10:40;9.55;;;3.85;;
26598;SDS011;14240;51.064;16.612;2023-01-16T15:13:15;8.32;;;3.83;;
26598;SDS011;14240;51.064;16.612;2023-01-16T15:16:17;9.40;;;4.13;;
26598;SDS011;14240;51.064;16.612;2023-01-16T15:19:18;8.20;;;4.03;;
26598;SDS011;14240;51.064;16.612;2023-01-16T15:22:15;7.13;;;4.60;;
26598;SDS011;14240;51.064;16.612;2023-01-16T15:24:44;6.38;;;3.53;;
26598;SDS011;14240;51.064;16.612;2023-01-16T15:27:20;9.75;;;3.03;;
26598;SDS011;14240;51.064;16.612;2023-01-16T15:30:02;9.10;;;3.92;;
26598;SDS011;14240;51.064;16.612;2023-01-16T15:32:31;8.45;;;3.90;;
26598;SDS011;14240;51.064;16.612;2023-01-16T15:35:17;7.90;;;4.30;;
26598;SDS011;14240;51.064;16.612;2023-01-16T15:37:54;9.88;;;4.35;;
26598;SDS011;14240;51.064;16.612;2023-01-16T15:40:27;6.95;;;3.92;;
26598;SDS011;14240;51.064;16.612;2023-01-16T15:42:54;9.65;;;4.43;;
26598;SDS011;14240;51.064;16.612;2023-01-16T15:45:55;10.50;;;4.28;;
26598;SDS011;14240;51.064;16.612;2023-01-16T15:51:36;9.48;;;3.88;;
26598;SDS011;14240;51.064;16.612;2023-01-16T15:54:02;10.13;;;4.18;;
26598;SDS011;14240;51.064;16.612;2023-01-16T15:56:38;13.02;;;4.95;;
26598;SDS011;14240;51.064;16.612;2023-01-16T16:02:20;11.07;;;3.88;;
26598;SDS011;14240;51.064;16.612;2023-01-16T16:04:49;9.35;;;3.83;;
26598;SDS011;14240;51.064;16.612;2023-01-16T16:07:19;10.52;;;5.25;;
26598;SDS011;14240;51.064;16.612;2023-01-16T16:09:46;12.23;;;5.20;;
26598;SDS011;14240;51.064;16.612;2023-01-16T16:12:14;9.43;;;4.82;;
26598;SDS011;14240;51.064;16.612;2023-01-16T16:14:42;7.65;;;4.40;;
26598;SDS011;14240;51.064;16.612;2023-01-16T16:17:27;8.15;;;4.10;;
26598;SDS011;14240;51.064;16.612;2023-01-16T16:20:27;9.05;;;3.58;;
26598;SDS011;14240;51.064;16.612;2023-01-16T16:23:09;5.72;;;2.40;;
26598;SDS011;14240;51.064;16.612;2023-01-16T16:25:37;7.07;;;2.90;;
26598;SDS011;14240;51.064;16.612;2023-01-16T16:28:26;7.18;;;3.33;;
26598;SDS011;14240;51.064;16.612;2023-01-16T16:31:16;12.47;;;5.33;;
26598;SDS011;14240;51.064;16.612;2023-01-16T16:36:20;16.23;;;5.95;;
26598;SDS011;14240;51.064;16.612;2023-01-16T16:38:47;12.25;;;5.75;;
26598;SDS011;14240;51.064;16.612;2023-01-16T16:44:39;17.75;;;6.47;;
26598;SDS011;14240;51.064;16.612;2023-01-16T16:47:13;13.30;;;6.80;;
26598;SDS011;14240;51.064;16.612;2023-01-16T16:49:50;11.40;;;5.45;;
26598;SDS011;14240;51.064;16.612;2023-01-16T16:52:20;22.85;;;8.73;;
26598;SDS011;14240;51.064;16.612;2023-01-16T16:54:59;19.75;;;10.32;;
26598;SDS011;14240;51.064;16.612;2023-01-16T16:57:25;15.02;;;7.20;;
26598;SDS011;14240;51.064;16.612;2023-01-16T16:59:55;15.90;;;7.53;;
26598;SDS011;14240;51.064;16.612;2023-01-16T17:02:21;13.88;;;6.43;;
26598;SDS011;14240;51.064;16.612;2023-01-16T17:04:47;18.08;;;7.88;;
26598;SDS011;14240;51.064;16.612;2023-01-16T17:07:13;17.27;;;7.80;;
26598;SDS011;14240;51.064;16.612;2023-01-16T17:09:39;37.30;;;14.20;;
26598;SDS011;14240;51.064;16.612;2023-01-16T17:14:45;19.27;;;9.43;;
26598;SDS011;14240;51.064;16.612;2023-01-16T17:17:12;21.25;;;8.35;;
26598;SDS011;14240;51.064;16.612;2023-01-16T17:19:41;11.32;;;4.85;;
26598;SDS011;14240;51.064;16.612;2023-01-16T17:22:08;13.25;;;5.93;;
26598;SDS011;14240;51.064;16.612;2023-01-16T17:27:00;10.80;;;4.90;;
26598;SDS011;14240;51.064;16.612;2023-01-16T17:29:27;6.80;;;3.80;;
26598;SDS011;14240;51.064;16.612;2023-01-16T17:31:53;11.93;;;5.20;;
26598;SDS011;14240;51.064;16.612;2023-01-16T17:34:19;7.28;;;3.97;;
26598;SDS011;14240;51.064;16.612;2023-01-16T17:36:45;8.60;;;4.95;;
26598;SDS011;14240;51.064;16.612;2023-01-16T17:39:11;11.05;;;4.97;;